Time;durP1;ratioP1;P1;durP2;ratioP2;P2;SDS_P1;SDS_P2;PMS_P1;PMS_P2;Temp;Humidity;BMP_temperature;BMP_pressure;BME280_temperature;BME280_humidity;BME280_pressure;Samples;Min_cycle;Max_cycle;Signal;HPM_P1;HPM_P2
2021/05/18 00:01:02;;;;;;;0.88;0.50;;;12.90;73.60;;;;;;5062367;28;20428;-75
2021/05/18 00:03:28;;;;;;;1.30;0.70;;;12.90;73.60;;;;;;5070622;28;20537;-76
2021/05/18 00:05:57;;;;;;;1.00;0.70;;;12.90;73.70;;;;;;5054790;28;20072;-76
2021/05/18 00:08:24;;;;;;;0.80;0.60;;;12.90;74.00;;;;;;5055372;28;20029;-76
2021/05/18 00:13:46;;;;;;;1.23;0.70;;;12.90;75.00;;;;;;5055508;28;20079;-76
2021/05/18 00:16:12;;;;;;;0.80;0.67;;;12.80;75.40;;;;;;5054965;28;20040;-76
2021/05/18 00:18:38;;;;;;;0.75;0.55;;;12.80;75.40;;;;;;5055313;28;20025;-76
2021/05/18 00:21:05;;;;;;;1.20;0.63;;;12.80;75.70;;;;;;5054875;28;20766;-76
2021/05/18 00:23:31;;;;;;;1.40;0.52;;;12.80;75.90;;;;;;5055059;28;20017;-76
2021/05/18 00:25:57;;;;;;;1.38;0.60;;;12.80;75.20;;;;;;5053322;28;20037;-76
2021/05/18 00:28:23;;;;;;;1.20;0.70;;;12.90;75.30;;;;;;5054614;28;20082;-75
2021/05/18 00:30:49;;;;;;;1.20;0.65;;;12.80;75.60;;;;;;5054751;28;20057;-75
2021/05/18 00:33:20;;;;;;;0.93;0.55;;;12.70;76.10;;;;;;5055118;28;20079;-76
2021/05/18 00:35:47;;;;;;;1.25;0.68;;;12.70;75.90;;;;;;5054396;28;20033;-76
2021/05/18 00:38:14;;;;;;;1.17;0.65;;;12.80;75.30;;;;;;5094053;28;20107;-76
2021/05/18 00:40:40;;;;;;;1.30;0.70;;;12.80;75.10;;;;;;5079283;28;20021;-76
2021/05/18 00:43:06;;;;;;;1.75;0.70;;;12.80;75.20;;;;;;5036938;28;20029;-75
2021/05/18 00:45:48;;;;;;;0.90;0.50;;;12.80;75.00;;;;;;5055323;28;20033;-75
2021/05/18 00:48:15;;;;;;;0.85;0.70;;;12.80;74.80;;;;;;5049051;28;20078;-76
2021/05/18 00:50:44;;;;;;;1.20;0.73;;;12.70;75.10;;;;;;5058604;28;20024;-75
2021/05/18 00:53:12;;;;;;;1.37;0.80;;;12.70;75.70;;;;;;5057991;28;20480;-75
2021/05/18 00:56:01;;;;;;;1.00;0.50;;;12.60;75.50;;;;;;5039838;28;20039;-75
2021/05/18 00:58:39;;;;;;;1.65;0.98;;;12.60;75.70;;;;;;5057972;28;20020;-75
2021/05/18 01:01:10;;;;;;;1.05;0.70;;;12.60;75.60;;;;;;5039959;28;20407;-75
2021/05/18 01:03:36;;;;;;;1.23;0.80;;;12.50;76.20;;;;;;5057977;28;20025;-75
2021/05/18 01:08:53;;;;;;;1.25;0.70;;;12.50;76.60;;;;;;5057650;28;20060;-75
2021/05/18 01:11:22;;;;;;;1.45;0.70;;;12.40;76.00;;;;;;5057659;28;20484;-76
2021/05/18 01:13:50;;;;;;;1.13;0.70;;;12.30;76.60;;;;;;5057740;28;20021;-75
2021/05/18 01:16:16;;;;;;;1.08;0.60;;;12.30;76.50;;;;;;5057980;28;20566;-75
2021/05/18 01:18:47;;;;;;;1.60;0.60;;;12.20;77.20;;;;;;5039659;28;20021;-76
2021/05/18 01:21:14;;;;;;;1.13;0.63;;;12.20;76.90;;;;;;5056176;28;20483;-76
2021/05/18 01:23:41;;;;;;;1.63;0.60;;;12.10;77.80;;;;;;5055482;28;20116;-75
2021/05/18 01:26:08;;;;;;;1.95;0.70;;;12.10;77.70;;;;;;5074548;28;20024;-76
2021/05/18 01:28:34;;;;;;;1.17;0.77;;;12.10;77.50;;;;;;5059258;28;20020;-76
2021/05/18 01:31:03;;;;;;;0.95;0.60;;;12.10;78.20;;;;;;5077346;28;20032;-75
2021/05/18 01:33:28;;;;;;;1.27;0.80;;;12.00;78.40;;;;;;5063391;28;20506;-76
2021/05/18 01:35:56;;;;;;;1.00;0.68;;;12.10;78.40;;;;;;5040265;28;20025;-75
2021/05/18 01:38:26;;;;;;;0.80;0.47;;;12.10;78.30;;;;;;5072572;28;20438;-76
2021/05/18 01:43:36;;;;;;;2.42;0.93;;;12.10;78.30;;;;;;5060186;28;20026;-75
2021/05/18 01:46:02;;;;;;;0.68;0.55;;;12.20;77.80;;;;;;5064131;28;20092;-75
2021/05/18 01:48:33;;;;;;;1.30;0.65;;;12.30;77.30;;;;;;5056912;28;20021;-75
2021/05/18 01:50:59;;;;;;;1.10;0.63;;;12.20;77.70;;;;;;5057441;28;20510;-75
2021/05/18 01:53:25;;;;;;;0.98;0.60;;;12.20;78.30;;;;;;5056912;28;20036;-75
2021/05/18 01:56:16;;;;;;;1.63;0.80;;;12.20;78.00;;;;;;5058725;28;20433;-76
2021/05/18 01:58:42;;;;;;;1.83;0.70;;;12.20;78.40;;;;;;5062268;28;20120;-75
2021/05/18 02:01:08;;;;;;;1.00;0.70;;;12.20;78.00;;;;;;5056673;28;20096;-75
2021/05/18 02:03:34;;;;;;;1.60;0.82;;;12.20;78.10;;;;;;5056641;28;20387;-75
2021/05/18 02:06:00;;;;;;;1.38;0.75;;;12.20;77.90;;;;;;5056665;28;20112;-75
2021/05/18 02:08:26;;;;;;;1.60;0.82;;;12.20;78.20;;;;;;5053977;28;20062;-75
2021/05/18 02:10:53;;;;;;;1.95;1.02;;;12.20;78.70;;;;;;5073020;28;20032;-75
2021/05/18 02:13:18;;;;;;;1.13;0.55;;;12.10;78.70;;;;;;5056558;28;20017;-75
2021/05/18 02:16:00;;;;;;;1.08;0.63;;;12.10;78.80;;;;;;5055066;28;20562;-75
2021/05/18 02:26:24;;;;;;;1.05;0.63;;;12.00;79.40;;;;;;5056809;28;20043;-74
2021/05/18 02:28:51;;;;;;;1.23;0.68;;;12.00;79.80;;;;;;5056121;28;20025;-74
2021/05/18 10:35:48;;;;;;;0.35;0.10;;;;;;;;;;5106251;28;20032;-80
2021/05/18 10:38:23;;;;;;;0.30;0.10;;;26.60;36.40;;;;;;5104673;28;20085;-78
2021/05/18 10:40:52;;;;;;;0.43;0.10;;;24.20;39.80;;;;;;5109292;28;20435;-78
2021/05/18 10:43:28;;;;;;;0.40;0.13;;;23.60;41.20;;;;;;5110905;28;20024;-76
2021/05/18 10:45:54;;;;;;;0.60;0.20;;;23.20;40.90;;;;;;5110728;28;20051;-78
2021/05/18 10:48:53;;;;;;;0.55;0.20;;;23.00;41.20;;;;;;5106429;28;20016;-75
2021/05/18 10:51:42;;;;;;;0.35;0.20;;;22.90;43.70;;;;;;5108024;28;20020;-76
2021/05/18 10:54:17;;;;;;;0.57;0.25;;;22.60;42.70;;;;;;5107588;28;20024;-76
2021/05/18 10:56:55;;;;;;;0.40;0.10;;;22.50;42.40;;;;;;5111602;28;20025;-76
2021/05/18 10:59:22;;;;;;;0.50;0.20;;;22.50;42.20;;;;;;5110218;28;20083;-76
2021/05/18 11:01:55;;;;;;;0.77;0.20;;;22.60;42.90;;;;;;5108367;28;20028;-75
2021/05/18 11:04:21;;;;;;;0.43;0.20;;;22.50;43.30;;;;;;5111545;28;20068;-75
2021/05/18 11:06:54;;;;;;;0.65;0.28;;;22.40;41.70;;;;;;5109850;28;20023;-77
2021/05/18 11:09:20;;;;;;;0.45;0.20;;;22.10;41.90;;;;;;5106474;28;20023;-76
2021/05/18 11:11:48;;;;;;;0.63;0.20;;;21.70;41.80;;;;;;5106871;28;20038;-79
2021/05/18 11:14:18;;;;;;;0.57;0.38;;;21.50;43.30;;;;;;5111065;28;20020;-76
2021/05/18 11:16:44;;;;;;;0.43;0.20;;;21.60;45.70;;;;;;5112317;28;20027;-76
2021/05/18 11:19:13;;;;;;;0.50;0.20;;;21.60;45.60;;;;;;5106326;28;20039;-76
2021/05/18 11:21:55;;;;;;;0.63;0.20;;;21.80;44.70;;;;;;5092186;28;20722;-76
2021/05/18 11:24:20;;;;;;;2.00;0.30;;;21.40;44.50;;;;;;5103008;28;20042;-76
2021/05/18 11:26:50;;;;;;;0.47;0.25;;;21.40;45.00;;;;;;5121018;28;20127;-76
2021/05/18 11:29:36;;;;;;;0.60;0.17;;;21.30;45.40;;;;;;5106742;28;20047;-77
2021/05/18 11:32:11;;;;;;;0.70;0.30;;;21.20;45.60;;;;;;5121799;28;20118;-76
2021/05/18 11:34:55;;;;;;;0.60;0.30;;;21.10;46.10;;;;;;5104388;28;20024;-76
2021/05/18 11:37:21;;;;;;;0.88;0.30;;;21.30;44.20;;;;;;5102786;28;20490;-75
2021/05/18 11:39:46;;;;;;;0.52;0.30;;;21.40;44.80;;;;;;5094376;28;20050;-75
2021/05/18 11:42:27;;;;;;;0.85;0.30;;;21.30;44.60;;;;;;5089306;28;20020;-75
2021/05/18 11:45:07;;;;;;;0.50;0.22;;;21.30;44.20;;;;;;5087331;28;20452;-75
2021/05/18 11:47:33;;;;;;;0.65;0.20;;;21.10;43.30;;;;;;5095660;28;20522;-75
2021/05/18 11:49:58;;;;;;;1.10;0.20;;;21.00;44.50;;;;;;5087491;28;20029;-75
2021/05/18 11:52:24;;;;;;;0.50;0.30;;;21.20;44.00;;;;;;5082437;28;20078;-75
2021/05/18 11:54:50;;;;;;;0.73;0.30;;;21.30;43.50;;;;;;5076964;28;20116;-75
2021/05/18 11:57:15;;;;;;;0.93;0.40;;;21.50;45.30;;;;;;5093502;27;20043;-75
2021/05/18 11:59:42;;;;;;;0.63;0.25;;;21.40;44.30;;;;;;5076990;28;20092;-75
2021/05/18 12:02:08;;;;;;;0.95;0.30;;;21.30;44.90;;;;;;5082453;28;20028;-75
2021/05/18 12:04:39;;;;;;;0.75;0.30;;;21.20;44.90;;;;;;5096390;28;20497;-75
2021/05/18 12:07:07;;;;;;;0.60;0.25;;;21.10;44.10;;;;;;5092941;28;20169;-75
2021/05/18 12:09:35;;;;;;;0.60;0.30;;;21.10;45.20;;;;;;5082780;28;20031;-75
2021/05/18 12:12:03;;;;;;;0.70;0.28;;;21.10;45.10;;;;;;5093730;28;20028;-75
2021/05/18 12:14:30;;;;;;;0.80;0.20;;;21.20;45.40;;;;;;5094882;28;20026;-75
2021/05/18 12:16:57;;;;;;;0.40;0.15;;;21.30;45.10;;;;;;5095178;28;20027;-75
2021/05/18 12:19:23;;;;;;;0.60;0.20;;;21.20;45.10;;;;;;5094806;28;20031;-75
2021/05/18 12:21:52;;;;;;;0.73;0.22;;;21.30;45.50;;;;;;5094196;28;20059;-75
2021/05/18 12:24:20;;;;;;;1.00;0.40;;;21.20;44.90;;;;;;5101235;28;20408;-75
2021/05/18 12:26:59;;;;;;;0.60;0.30;;;21.60;44.20;;;;;;5096261;28;20402;-75
2021/05/18 12:29:42;;;;;;;0.40;0.20;;;21.80;46.20;;;;;;5085021;28;20039;-75
2021/05/18 12:32:34;;;;;;;0.55;0.25;;;22.20;45.70;;;;;;5094382;28;20043;-76
2021/05/18 12:35:05;;;;;;;0.68;0.20;;;22.60;43.60;;;;;;5094356;28;20020;-76
2021/05/18 12:37:43;;;;;;;0.80;0.30;;;22.60;42.70;;;;;;5106391;28;20016;-76
2021/05/18 12:40:15;;;;;;;0.70;0.15;;;22.50;42.80;;;;;;5095694;28;20691;-75
2021/05/18 12:42:45;;;;;;;0.47;0.20;;;22.20;41.40;;;;;;5095763;28;20023;-75
2021/05/18 12:45:20;;;;;;;0.40;0.20;;;22.00;43.10;;;;;;5094934;28;20028;-77
2021/05/18 12:48:05;;;;;;;0.47;0.20;;;21.80;40.50;;;;;;5088390;28;20495;-77
2021/05/18 12:50:51;;;;;;;0.50;0.20;;;22.00;42.50;;;;;;5093596;28;20024;-76
2021/05/18 12:53:28;;;;;;;0.40;0.20;;;22.00;42.20;;;;;;5101469;28;20070;-77
2021/05/18 12:55:55;;;;;;;0.35;0.17;;;22.10;40.80;;;;;;5091332;28;20579;-76
2021/05/18 12:58:30;;;;;;;0.10;0.10;;;22.20;39.10;;;;;;5108270;28;20727;-76
2021/05/18 13:01:13;;;;;;;0.75;0.22;;;22.30;39.90;;;;;;5105286;28;20056;-76
2021/05/18 13:03:41;;;;;;;0.95;0.30;;;22.40;41.50;;;;;;5081401;28;20039;-76
2021/05/18 13:06:07;;;;;;;0.70;0.20;;;22.20;41.20;;;;;;5094235;28;20036;-75
2021/05/18 13:08:38;;;;;;;0.50;0.20;;;22.20;42.70;;;;;;5094322;28;20086;-75
2021/05/18 13:11:10;;;;;;;0.38;0.20;;;22.20;41.40;;;;;;5084433;28;20106;-75
2021/05/18 13:13:38;;;;;;;0.28;0.20;;;21.90;40.80;;;;;;5110305;28;20073;-74
2021/05/18 13:16:21;;;;;;;0.30;0.15;;;22.00;43.50;;;;;;5093651;28;20043;-74
2021/05/18 13:19:07;;;;;;;0.77;0.20;;;22.30;42.70;;;;;;5110465;28;20024;-75
2021/05/18 13:21:49;;;;;;;0.80;0.30;;;22.50;43.90;;;;;;5110399;28;20164;-75
2021/05/18 13:27:10;;;;;;;0.28;0.13;;;22.50;41.20;;;;;;5060924;28;20044;-75
2021/05/18 13:29:36;;;;;;;0.20;0.10;;;22.50;39.80;;;;;;5093616;28;20072;-75
2021/05/18 13:32:03;;;;;;;0.30;0.20;;;22.40;39.90;;;;;;5095187;28;20024;-75
2021/05/18 13:34:29;;;;;;;0.43;0.20;;;22.30;41.70;;;;;;5093360;28;20057;-75
2021/05/18 13:36:55;;;;;;;0.55;0.20;;;22.30;41.70;;;;;;5093648;28;20145;-76
2021/05/18 13:39:23;;;;;;;0.25;0.10;;;22.20;41.60;;;;;;5088645;28;20035;-76
2021/05/18 13:41:49;;;;;;;0.50;0.20;;;22.00;41.50;;;;;;5089860;28;20042;-75
2021/05/18 13:44:16;;;;;;;0.75;0.20;;;21.90;42.90;;;;;;5094190;28;20099;-75
2021/05/18 13:46:42;;;;;;;0.43;0.20;;;21.70;43.20;;;;;;5094676;28;20100;-75
2021/05/18 13:49:08;;;;;;;0.40;0.20;;;21.50;44.70;;;;;;5093068;28;20016;-75
2021/05/18 13:51:36;;;;;;;0.47;0.20;;;21.10;45.40;;;;;;5094599;28;20025;-75
2021/05/18 13:54:02;;;;;;;0.50;0.20;;;21.00;46.90;;;;;;5091787;28;20020;-75
2021/05/18 13:56:29;;;;;;;0.47;0.20;;;20.90;48.10;;;;;;5093889;28;20462;-75
2021/05/18 13:58:55;;;;;;;0.70;0.30;;;20.80;47.30;;;;;;5094379;28;20024;-75
2021/05/18 14:01:21;;;;;;;0.47;0.10;;;20.70;47.20;;;;;;5085893;28;20036;-75
2021/05/18 14:03:48;;;;;;;1.10;0.30;;;20.30;47.60;;;;;;5090571;28;20040;-75
2021/05/18 14:06:15;;;;;;;0.55;0.20;;;20.00;47.50;;;;;;5078847;28;21525;-75
2021/05/18 14:08:41;;;;;;;0.40;0.20;;;19.70;47.00;;;;;;5089725;28;20363;-76
2021/05/18 14:11:12;;;;;;;0.40;0.20;;;19.40;47.90;;;;;;5090711;28;20024;-76
2021/05/18 14:13:44;;;;;;;0.20;0.20;;;19.50;47.80;;;;;;5095834;28;20031;-77
2021/05/18 14:16:15;;;;;;;0.60;0.30;;;19.60;47.70;;;;;;5092158;28;20039;-76
2021/05/18 14:18:41;;;;;;;0.30;0.20;;;19.90;49.20;;;;;;5099237;28;20785;-77
2021/05/18 14:21:07;;;;;;;0.60;0.28;;;20.30;47.60;;;;;;5091449;28;20139;-75
2021/05/18 14:23:52;;;;;;;0.70;0.20;;;20.60;46.40;;;;;;5088333;28;20024;-75
2021/05/18 14:26:23;;;;;;;0.40;0.20;;;20.80;45.60;;;;;;5091543;28;20052;-75
2021/05/18 14:28:49;;;;;;;0.40;0.20;;;21.20;46.20;;;;;;5093094;28;20028;-75
2021/05/18 14:31:16;;;;;;;0.35;0.10;;;21.50;47.20;;;;;;5109784;28;20078;-74
2021/05/18 14:33:42;;;;;;;0.55;0.20;;;21.40;45.50;;;;;;5083321;28;20059;-75
2021/05/18 14:36:10;;;;;;;0.40;0.20;;;21.50;45.80;;;;;;5088647;28;20410;-75
2021/05/18 14:38:38;;;;;;;0.15;0.10;;;21.60;46.10;;;;;;5090700;28;20024;-76
2021/05/18 14:46:19;;;;;;;0.50;0.30;;;21.30;45.00;;;;;;5091733;28;20058;-75
2021/05/18 14:57:01;;;;;;;0.22;0.10;;;21.00;49.30;;;;;;5086929;28;20462;-75
2021/05/18 14:59:27;;;;;;;0.60;0.20;;;20.90;48.90;;;;;;5088710;28;20024;-75
2021/05/18 15:01:53;;;;;;;0.47;0.20;;;20.60;47.50;;;;;;5090691;28;20024;-75
2021/05/18 15:04:18;;;;;;;0.50;0.17;;;20.30;48.90;;;;;;5087593;28;20494;-75
2021/05/18 15:06:44;;;;;;;0.38;0.20;;;20.00;49.60;;;;;;5087899;28;20109;-75
2021/05/18 15:09:10;;;;;;;0.30;0.10;;;19.80;50.70;;;;;;5087077;28;20016;-75
2021/05/18 15:11:36;;;;;;;0.32;0.20;;;19.60;51.80;;;;;;5090297;28;20064;-75
2021/05/18 15:14:03;;;;;;;0.60;0.30;;;19.30;51.60;;;;;;5089223;28;20095;-75
2021/05/18 15:16:29;;;;;;;1.10;0.25;;;19.10;53.10;;;;;;5092185;28;20027;-76
2021/05/18 15:19:02;;;;;;;0.50;0.30;;;18.90;53.20;;;;;;5094880;28;20027;-75
2021/05/18 15:21:28;;;;;;;0.40;0.20;;;19.00;53.50;;;;;;5095315;28;20470;-78
2021/05/18 15:23:54;;;;;;;0.40;0.20;;;19.20;53.20;;;;;;5097121;28;20375;-76
2021/05/18 15:26:19;;;;;;;0.30;0.20;;;19.30;53.40;;;;;;5096582;28;20067;-77
2021/05/18 15:28:45;;;;;;;0.80;0.40;;;19.60;53.50;;;;;;5095009;28;20103;-76
2021/05/18 15:31:11;;;;;;;0.60;0.20;;;19.80;52.30;;;;;;5096367;28;20016;-76
2021/05/18 15:33:37;;;;;;;0.85;0.32;;;20.00;51.40;;;;;;5093048;28;20043;-76
2021/05/18 15:36:04;;;;;;;0.47;0.20;;;20.30;50.80;;;;;;5094470;28;20028;-76
2021/05/18 15:38:37;;;;;;;0.40;0.20;;;20.40;50.00;;;;;;5092888;28;20040;-75
2021/05/18 15:41:03;;;;;;;0.65;0.28;;;20.40;50.20;;;;;;5092956;28;20101;-75
2021/05/18 15:43:29;;;;;;;0.30;0.20;;;20.20;48.90;;;;;;5095797;28;20028;-75
2021/05/18 15:45:54;;;;;;;0.38;0.20;;;20.10;49.20;;;;;;5091136;28;20033;-75
2021/05/18 15:48:20;;;;;;;0.60;0.28;;;20.00;49.90;;;;;;5095043;28;20024;-75
2021/05/18 15:50:46;;;;;;;0.38;0.20;;;19.80;49.60;;;;;;5094214;28;20111;-75
2021/05/18 15:53:12;;;;;;;0.80;0.35;;;19.80;50.30;;;;;;5096882;28;20027;-75
2021/05/18 15:55:38;;;;;;;0.30;0.20;;;19.70;50.30;;;;;;5076176;28;20024;-75
2021/05/18 15:58:03;;;;;;;0.70;0.20;;;19.60;50.80;;;;;;5089507;28;20027;-74
2021/05/18 16:00:29;;;;;;;0.68;0.30;;;19.50;51.20;;;;;;5090059;28;20012;-75
2021/05/18 16:02:55;;;;;;;0.57;0.30;;;19.40;51.60;;;;;;5093377;28;20379;-75
2021/05/18 16:05:21;;;;;;;0.57;0.20;;;19.40;51.70;;;;;;5094880;28;20055;-75
2021/05/18 16:07:53;;;;;;;0.70;0.30;;;19.30;52.50;;;;;;5081929;28;20046;-75
2021/05/18 16:10:19;;;;;;;0.50;0.20;;;19.30;52.60;;;;;;5089967;28;20046;-75
2021/05/18 16:12:45;;;;;;;0.40;0.30;;;19.20;52.30;;;;;;5092306;28;20032;-75
2021/05/18 16:15:11;;;;;;;0.60;0.30;;;19.20;52.40;;;;;;5091935;28;20016;-76
2021/05/18 16:17:37;;;;;;;0.90;0.30;;;19.40;53.60;;;;;;5086814;28;20071;-75
2021/05/18 16:20:03;;;;;;;0.80;0.20;;;19.50;52.80;;;;;;5089014;28;20020;-76
2021/05/18 16:22:29;;;;;;;0.88;0.20;;;19.60;52.00;;;;;;5092723;28;20030;-75
2021/05/18 16:24:55;;;;;;;0.50;0.30;;;19.50;51.80;;;;;;5101089;28;20115;-75
2021/05/18 16:27:21;;;;;;;0.32;0.20;;;19.50;52.20;;;;;;5105121;28;20086;-74
2021/05/18 16:29:46;;;;;;;0.73;0.28;;;19.40;52.60;;;;;;5089074;28;20115;-75
2021/05/18 16:32:12;;;;;;;0.30;0.20;;;19.30;52.40;;;;;;5080957;28;20032;-74
2021/05/18 16:34:38;;;;;;;0.50;0.20;;;19.10;53.40;;;;;;5084837;28;20514;-75
2021/05/18 16:37:04;;;;;;;0.60;0.30;;;19.10;53.70;;;;;;5083506;28;20060;-76
2021/05/18 16:39:30;;;;;;;0.40;0.20;;;18.90;55.90;;;;;;5079628;28;20028;-74
2021/05/18 16:41:55;;;;;;;0.60;0.30;;;18.80;56.70;;;;;;5093667;28;20093;-75
2021/05/18 16:44:22;;;;;;;1.35;0.30;;;18.60;59.50;;;;;;5101876;28;20174;-75
2021/05/18 16:46:48;;;;;;;0.40;0.20;;;18.40;61.80;;;;;;5102991;28;20035;-76
2021/05/18 16:49:14;;;;;;;0.60;0.30;;;18.20;61.50;;;;;;5089061;28;20020;-75
2021/05/18 16:51:40;;;;;;;0.80;0.30;;;18.00;62.20;;;;;;5089934;28;20096;-76
2021/05/18 16:54:10;;;;;;;0.55;0.35;;;18.10;62.50;;;;;;5088348;28;20602;-76
2021/05/18 16:56:38;;;;;;;0.55;0.30;;;18.10;62.60;;;;;;5093442;28;20118;-76
2021/05/18 16:59:05;;;;;;;0.30;0.20;;;18.30;63.40;;;;;;5093045;28;20032;-76
2021/05/18 17:01:31;;;;;;;0.40;0.30;;;18.40;64.60;;;;;;5093810;28;20457;-76
2021/05/18 17:03:57;;;;;;;0.95;0.40;;;18.60;64.20;;;;;;5088919;28;20091;-76
2021/05/18 17:06:22;;;;;;;0.60;0.30;;;18.90;64.10;;;;;;5089073;28;20039;-77
2021/05/18 17:08:48;;;;;;;0.45;0.20;;;19.10;62.90;;;;;;5091940;28;20020;-76
2021/05/18 17:11:14;;;;;;;0.22;0.20;;;19.10;61.70;;;;;;5089786;28;20054;-76
2021/05/18 17:13:40;;;;;;;0.82;0.30;;;19.20;61.40;;;;;;5094255;28;20028;-75
2021/05/18 17:16:06;;;;;;;0.40;0.20;;;19.20;60.20;;;;;;5092390;28;20035;-78
2021/05/18 17:18:33;;;;;;;0.50;0.30;;;19.20;61.00;;;;;;5095174;28;20102;-77
2021/05/18 17:20:59;;;;;;;0.45;0.20;;;19.30;59.80;;;;;;5092060;28;20081;-77
2021/05/18 17:23:25;;;;;;;0.40;0.30;;;19.20;58.10;;;;;;5087860;28;20024;-75
2021/05/18 17:25:51;;;;;;;1.25;0.22;;;19.10;58.60;;;;;;5090475;28;20119;-79
2021/05/18 17:28:16;;;;;;;0.55;0.20;;;19.00;58.50;;;;;;5090145;28;20016;-77
2021/05/18 17:30:42;;;;;;;0.40;0.20;;;19.00;57.50;;;;;;5089653;28;20032;-84
2021/05/18 17:33:15;;;;;;;0.45;0.30;;;18.70;57.40;;;;;;5091553;28;20020;-77
2021/05/18 17:35:40;;;;;;;0.65;0.30;;;18.60;58.00;;;;;;5092549;28;20024;-81
2021/05/18 17:38:06;;;;;;;0.65;0.35;;;18.40;56.80;;;;;;5076841;28;20031;-79
2021/05/18 17:40:33;;;;;;;1.00;0.30;;;18.40;58.50;;;;;;5081686;28;20020;-79
2021/05/18 17:42:59;;;;;;;1.25;0.40;;;18.40;57.60;;;;;;5087618;28;20015;-79
2021/05/18 17:45:25;;;;;;;0.57;0.30;;;18.20;60.00;;;;;;5102027;28;20020;-78
2021/05/18 17:47:50;;;;;;;0.43;0.30;;;18.20;60.90;;;;;;5081852;28;20139;-81
2021/05/18 17:50:17;;;;;;;0.82;0.30;;;18.10;61.80;;;;;;5094169;28;20027;-78
2021/05/18 17:52:44;;;;;;;0.60;0.28;;;18.10;59.80;;;;;;5080112;28;20138;-78
2021/05/18 17:55:11;;;;;;;0.35;0.20;;;18.20;60.30;;;;;;5083503;28;20024;-81
2021/05/18 17:57:37;;;;;;;0.52;0.20;;;18.10;60.00;;;;;;5097010;28;20031;-78
2021/05/18 18:00:05;;;;;;;0.55;0.30;;;18.10;60.90;;;;;;5077125;28;20020;-81
2021/05/18 18:02:31;;;;;;;0.40;0.20;;;18.10;60.30;;;;;;5077547;28;20032;-79
2021/05/18 18:04:57;;;;;;;0.20;0.15;;;18.10;57.90;;;;;;5079014;28;20039;-79
2021/05/18 18:07:22;;;;;;;0.75;0.22;;;18.00;57.80;;;;;;5086628;28;20056;-80
2021/05/18 18:09:48;;;;;;;0.35;0.20;;;17.90;59.10;;;;;;5083607;28;20395;-80
2021/05/18 18:12:14;;;;;;;1.08;0.30;;;17.90;58.00;;;;;;5078507;28;20030;-77
2021/05/18 18:14:40;;;;;;;1.13;0.43;;;17.80;58.10;;;;;;5082855;28;20036;-80
2021/05/18 18:17:11;;;;;;;0.70;0.43;;;17.70;56.60;;;;;;5079778;28;20095;-84
2021/05/18 18:19:40;;;;;;;0.60;0.30;;;17.60;56.40;;;;;;5100559;28;20039;-79
2021/05/18 18:22:06;;;;;;;0.68;0.30;;;17.60;57.50;;;;;;5079212;28;20394;-83
2021/05/18 18:24:33;;;;;;;0.50;0.30;;;17.60;58.40;;;;;;5089223;28;20073;-78
2021/05/18 18:26:59;;;;;;;0.80;0.45;;;17.60;56.50;;;;;;5082176;28;20052;-80
2021/05/18 18:29:25;;;;;;;0.60;0.40;;;17.60;56.50;;;;;;5086217;28;20032;-80
2021/05/18 18:31:50;;;;;;;0.65;0.30;;;17.60;57.40;;;;;;5083687;28;20028;-78
2021/05/18 18:34:16;;;;;;;0.57;0.30;;;17.50;57.00;;;;;;5079617;28;20035;-80
2021/05/18 18:36:44;;;;;;;0.70;0.40;;;17.50;57.20;;;;;;5089730;28;20028;-80
2021/05/18 18:39:11;;;;;;;0.45;0.30;;;17.50;58.10;;;;;;5085198;28;20042;-78
2021/05/18 18:41:37;;;;;;;0.47;0.30;;;17.40;56.30;;;;;;5078270;28;20017;-81
2021/05/18 18:44:03;;;;;;;0.40;0.22;;;17.30;56.40;;;;;;5085036;28;20035;-79
2021/05/18 18:46:29;;;;;;;0.30;0.20;;;17.40;56.80;;;;;;5081933;28;20024;-77
2021/05/18 18:48:56;;;;;;;0.70;0.30;;;17.40;57.70;;;;;;5081408;28;20029;-78
2021/05/18 18:51:25;;;;;;;0.63;0.20;;;17.30;56.60;;;;;;5090699;28;20013;-78
2021/05/18 18:53:50;;;;;;;0.30;0.20;;;17.20;56.80;;;;;;5094566;28;20111;-81
2021/05/18 18:56:18;;;;;;;0.68;0.30;;;17.20;58.10;;;;;;5087515;28;20059;-78
2021/05/18 18:58:45;;;;;;;0.50;0.30;;;17.20;57.50;;;;;;5083472;28;20100;-78
2021/05/18 19:01:12;;;;;;;0.43;0.20;;;17.20;58.60;;;;;;5086551;28;20032;-78
2021/05/18 19:03:45;;;;;;;0.45;0.22;;;17.10;57.40;;;;;;5091913;28;20024;-78
2021/05/18 19:13:53;;;;;;;0.40;0.30;;;16.80;59.50;;;;;;5090514;28;20103;-76
2021/05/18 19:16:18;;;;;;;1.45;0.35;;;16.80;60.20;;;;;;5086176;28;20111;-79
2021/05/18 19:18:44;;;;;;;0.50;0.30;;;16.80;60.00;;;;;;5084278;28;20031;-78
2021/05/18 19:21:09;;;;;;;0.40;0.35;;;16.60;59.80;;;;;;5088435;28;20035;-78
2021/05/18 19:23:35;;;;;;;0.50;0.30;;;16.60;59.70;;;;;;5092538;28;20024;-83
2021/05/18 19:26:01;;;;;;;0.70;0.32;;;16.60;60.00;;;;;;5090642;28;20171;-78
2021/05/18 19:28:29;;;;;;;0.70;0.40;;;16.60;61.10;;;;;;5083919;28;20111;-77
2021/05/18 19:30:57;;;;;;;0.90;0.40;;;16.60;60.70;;;;;;5093075;28;20471;-80
2021/05/18 19:33:22;;;;;;;0.90;0.40;;;16.70;61.50;;;;;;5087770;28;20402;-77
2021/05/18 19:51:36;;;;;;;0.43;0.30;;;16.60;63.10;;;;;;5088755;28;20423;-78
2021/05/18 19:54:03;;;;;;;1.23;0.30;;;16.60;62.70;;;;;;5092278;28;20024;-76
2021/05/18 19:56:37;;;;;;;0.80;0.40;;;16.50;62.20;;;;;;5088883;28;20184;-76
2021/05/18 19:59:21;;;;;;;0.70;0.32;;;16.30;62.70;;;;;;5084698;28;20096;-75
2021/05/18 20:15:48;;;;;;;1.13;0.40;;;16.00;62.80;;;;;;5086152;28;20034;-76
2021/05/18 20:20:50;;;;;;;3.17;0.40;;;15.80;63.60;;;;;;5094098;28;20031;-77
2021/05/18 20:23:16;;;;;;;0.40;0.30;;;15.70;64.40;;;;;;5086672;28;20398;-76
2021/05/18 20:25:41;;;;;;;1.25;0.30;;;15.60;65.00;;;;;;5092939;28;20032;-77
2021/05/18 20:28:07;;;;;;;0.98;0.40;;;15.60;65.10;;;;;;5090917;28;20402;-76
2021/05/18 20:30:32;;;;;;;0.63;0.40;;;15.60;64.80;;;;;;5074303;28;20380;-77
2021/05/18 20:33:00;;;;;;;0.30;0.20;;;15.40;65.50;;;;;;5095763;28;20016;-76
2021/05/18 20:35:48;;;;;;;0.43;0.30;;;15.50;65.70;;;;;;5076756;28;20031;-77
2021/05/18 20:40:59;;;;;;;0.68;0.40;;;15.40;65.60;;;;;;5096979;28;20023;-76
2021/05/18 20:43:24;;;;;;;0.70;0.40;;;15.50;65.20;;;;;;5092612;28;20016;-77
2021/05/18 20:45:50;;;;;;;0.60;0.50;;;15.40;66.10;;;;;;5096545;28;20031;-77
2021/05/18 20:48:16;;;;;;;0.93;0.40;;;15.30;66.40;;;;;;5090778;28;20027;-77
2021/05/18 20:50:43;;;;;;;0.40;0.30;;;15.20;66.40;;;;;;5094465;28;20024;-76
2021/05/18 20:53:09;;;;;;;0.50;0.35;;;15.20;67.20;;;;;;5092819;28;20035;-76
2021/05/18 20:55:35;;;;;;;0.88;0.40;;;15.10;67.70;;;;;;5096072;28;20046;-76
2021/05/18 20:58:01;;;;;;;0.70;0.40;;;15.30;67.30;;;;;;5090645;28;20032;-76
2021/05/18 21:00:27;;;;;;;1.38;0.60;;;15.30;67.30;;;;;;5096021;28;20100;-76
2021/05/18 21:02:52;;;;;;;0.52;0.30;;;15.20;67.70;;;;;;5091933;28;20403;-76
2021/05/18 21:05:20;;;;;;;0.70;0.47;;;15.20;67.90;;;;;;5088046;28;20076;-76
2021/05/18 21:13:06;;;;;;;0.70;0.40;;;15.20;67.80;;;;;;5076545;28;20112;-76
2021/05/18 21:18:10;;;;;;;0.50;0.30;;;15.00;69.20;;;;;;5076159;28;20399;-76
2021/05/18 21:20:36;;;;;;;0.80;0.35;;;15.00;69.40;;;;;;5076127;28;20200;-76
2021/05/18 21:23:02;;;;;;;1.33;0.50;;;14.90;70.10;;;;;;5088283;28;20036;-76
2021/05/18 21:25:27;;;;;;;0.60;0.40;;;14.90;69.70;;;;;;5076266;28;20086;-76
2021/05/18 21:27:53;;;;;;;0.77;0.30;;;14.90;69.30;;;;;;5075856;28;20059;-76
2021/05/18 21:30:29;;;;;;;;;;;;;;;;;;;;;
2021/05/18 21:32:55;;;;;;;0.80;0.43;;;14.90;69.80;;;;;;5075889;28;20046;-77
2021/05/18 21:35:21;;;;;;;0.43;0.30;;;14.90;70.30;;;;;;5075778;28;20031;-76
2021/05/18 21:37:47;;;;;;;1.13;0.57;;;14.90;70.00;;;;;;5092108;28;20471;-76
2021/05/18 21:40:24;;;;;;;0.65;0.40;;;14.80;70.70;;;;;;5095882;28;20066;-76
2021/05/18 21:42:55;;;;;;;0.90;0.40;;;14.70;71.10;;;;;;5094630;28;20088;-76
2021/05/18 21:45:20;;;;;;;1.95;0.65;;;14.80;71.70;;;;;;5077378;28;20094;-76
2021/05/18 21:47:46;;;;;;;0.60;0.32;;;14.70;71.70;;;;;;5075595;28;20028;-75
2021/05/18 21:50:13;;;;;;;1.00;0.60;;;14.70;72.00;;;;;;5075627;28;20158;-76
2021/05/18 21:52:39;;;;;;;0.55;0.35;;;14.70;71.90;;;;;;5075911;28;20127;-76
2021/05/18 21:55:06;;;;;;;0.82;0.40;;;14.50;72.50;;;;;;5085368;28;20496;-76
2021/05/18 21:57:32;;;;;;;1.08;0.52;;;14.50;72.80;;;;;;5096109;28;20024;-76
2021/05/18 21:59:58;;;;;;;0.68;0.40;;;14.50;72.70;;;;;;5085949;28;20106;-75
2021/05/18 22:02:24;;;;;;;1.40;0.50;;;14.60;73.00;;;;;;5075764;28;20079;-76
2021/05/18 22:04:52;;;;;;;0.65;0.40;;;14.50;73.20;;;;;;5075342;28;20115;-76
2021/05/18 22:07:20;;;;;;;0.47;0.30;;;14.50;73.80;;;;;;5091094;28;20033;-76
2021/05/18 22:28:02;;;;;;;0.60;0.40;;;14.40;74.70;;;;;;5095490;28;20073;-76
2021/05/18 22:30:28;;;;;;;0.73;0.50;;;14.40;75.20;;;;;;5090042;28;20487;-76
2021/05/18 22:33:07;;;;;;;0.60;0.50;;;14.30;75.70;;;;;;5092694;28;20055;-76
2021/05/18 22:35:32;;;;;;;1.00;0.40;;;14.30;76.00;;;;;;5095394;28;20036;-76
2021/05/18 22:37:58;;;;;;;0.88;0.30;;;14.20;76.30;;;;;;5095121;28;20024;-76
2021/05/18 22:40:23;;;;;;;0.40;0.32;;;14.20;76.30;;;;;;5094286;28;20056;-75